Time;durP1;ratioP1;P1;durP2;ratioP2;P2;SDS_P1;SDS_P2;PMS_P1;PMS_P2;Temp;Humidity;BMP_temperature;BMP_pressure;BME280_temperature;BME280_humidity;BME280_pressure;Samples;Min_cycle;Max_cycle;Signal;HPM_P1;HPM_P2
2023/04/24 00:00:50;;;;;;;5.18;3.00;;;;;;;;;;5111765;27;21026;-70
2023/04/24 00:03:20;;;;;;;4.13;2.60;;;;;;;;;;5110266;28;20046;-70
2023/04/24 00:05:48;;;;;;;3.72;2.88;;;;;;;;;;5108462;28;20051;-70
2023/04/24 00:08:16;;;;;;;4.47;2.40;;;;;;;;;;5110548;27;20464;-70
2023/04/24 00:10:44;;;;;;;3.42;2.50;;;;;;;;;;5122483;27;20124;-71
2023/04/24 00:13:11;;;;;;;5.40;2.65;;;;;;;;;;5124748;27;20136;-71
2023/04/24 00:15:39;;;;;;;3.53;2.60;;;;;;;;;;5108887;27;20062;-70
2023/04/24 00:18:07;;;;;;;4.00;2.20;;;;;;;;;;5109767;27;20055;-70
2023/04/24 00:20:35;;;;;;;3.50;2.00;;;;;;;;;;5130741;27;20047;-70
2023/04/24 00:23:02;;;;;;;4.55;2.30;;;;;;;;;;5129179;27;20051;-70
2023/04/24 00:25:29;;;;;;;2.92;2.10;;;;;;;;;;5118856;27;20319;-70
2023/04/24 00:27:57;;;;;;;3.75;2.40;;;;;;;;;;5129262;27;20043;-70
2023/04/24 00:30:24;;;;;;;4.18;2.63;;;;;;;;;;5121731;27;20453;-70
2023/04/24 00:32:53;;;;;;;3.80;2.63;;;;;;;;;;5121213;27;20093;-70
2023/04/24 00:35:20;;;;;;;3.72;2.42;;;;;;;;;;5125777;27;20082;-71
2023/04/24 00:37:48;;;;;;;4.90;2.70;;;;;;;;;;5125968;27;20196;-70
2023/04/24 00:40:15;;;;;;;4.45;2.75;;;;;;;;;;5130269;27;20054;-71
2023/04/24 00:42:42;;;;;;;3.90;2.80;;;;;;;;;;5126863;27;20512;-70
2023/04/24 00:45:10;;;;;;;5.78;2.80;;;;;;;;;;5126778;27;20047;-71
2023/04/24 00:47:38;;;;;;;3.17;2.20;;;;;;;;;;5127775;27;20043;-70
2023/04/24 00:50:08;;;;;;;4.05;2.90;;;;;;;;;;5128177;27;20101;-70
2023/04/24 00:52:35;;;;;;;4.35;2.72;;;;;;;;;;5126113;27;20043;-70
2023/04/24 00:55:03;;;;;;;3.22;2.63;;;;;;;;;;5129408;27;20107;-70
2023/04/24 00:57:30;;;;;;;5.35;2.78;;;;;;;;;;5125967;27;20046;-71
2023/04/24 00:59:57;;;;;;;3.35;2.38;;;;;;;;;;5129123;27;20039;-70
2023/04/24 01:02:24;;;;;;;4.78;2.80;;;;;;;;;;5121169;27;20082;-70
2023/04/24 01:04:52;;;;;;;3.80;2.78;;;;;;;;;;5125968;27;20129;-70
2023/04/24 01:07:22;;;;;;;5.40;3.10;;;;;;;;;;5127507;27;20380;-70
2023/04/24 01:09:50;;;;;;;4.53;2.72;;;;;;;;;;5124191;27;20066;-70
2023/04/24 01:12:18;;;;;;;3.92;2.83;;;;;;;;;;5128175;27;20039;-70
2023/04/24 01:14:46;;;;;;;3.67;2.50;;;;;;;;;;5124449;27;20058;-70
2023/04/24 01:17:13;;;;;;;6.03;2.75;;;;;;;;;;5125869;27;20065;-70
2023/04/24 01:19:40;;;;;;;4.45;2.85;;;;;;;;;;5128238;27;20042;-71
2023/04/24 01:22:14;;;;;;;5.30;2.65;;;;;;;;;;5127433;27;20384;-70
2023/04/24 01:24:41;;;;;;;3.70;2.38;;;;;;;;;;5128994;27;20053;-70
2023/04/24 01:27:09;;;;;;;4.43;2.10;;;;;;;;;;5125906;27;20054;-70
2023/04/24 01:29:36;;;;;;;4.65;2.35;;;;;;;;;;5129548;27;20043;-70
2023/04/24 01:32:04;;;;;;;4.00;2.45;;;;;;;;;;5108196;27;20047;-70
2023/04/24 01:34:32;;;;;;;3.08;2.30;;;;;;;;;;5126351;27;20517;-71
2023/04/24 01:36:59;;;;;;;6.80;2.40;;;;;;;;;;5128441;27;20050;-70
2023/04/24 01:39:28;;;;;;;4.10;2.40;;;;;;;;;;5126346;27;20180;-70
2023/04/24 01:41:55;;;;;;;7.90;3.25;;;;;;;;;;5110192;27;20126;-71
2023/04/24 01:44:23;;;;;;;4.18;2.78;;;;;;;;;;5128143;27;20130;-70
2023/04/24 01:46:50;;;;;;;3.17;2.50;;;;;;;;;;5128613;27;20050;-70
2023/04/24 01:49:17;;;;;;;3.63;2.70;;;;;;;;;;5127788;27;20122;-70
2023/04/24 01:51:45;;;;;;;6.32;2.92;;;;;;;;;;5127234;27;20417;-70
2023/04/24 01:54:12;;;;;;;4.32;3.28;;;;;;;;;;5125300;27;20074;-70
2023/04/24 01:56:42;;;;;;;5.70;3.88;;;;;;;;;;5128855;27;20047;-70
2023/04/24 01:59:10;;;;;;;4.05;3.22;;;;;;;;;;5126284;27;20537;-70
2023/04/24 02:01:38;;;;;;;4.60;3.50;;;;;;;;;;5128315;27;20353;-70
2023/04/24 02:04:06;;;;;;;4.25;3.30;;;;;;;;;;5122914;27;20051;-70
2023/04/24 02:06:33;;;;;;;4.85;3.58;;;;;;;;;;5110528;27;20067;-70
2023/04/24 02:09:00;;;;;;;6.05;4.00;;;;;;;;;;5121662;27;20506;-71
2023/04/24 02:11:28;;;;;;;4.78;3.38;;;;;;;;;;5108629;28;20411;-70
2023/04/24 02:13:56;;;;;;;4.72;2.92;;;;;;;;;;5106373;28;20047;-71
2023/04/24 02:16:24;;;;;;;6.53;3.88;;;;;;;;;;5105162;28;20043;-71
2023/04/24 02:18:51;;;;;;;7.07;4.78;;;;;;;;;;5089013;28;20062;-70
2023/04/24 02:21:18;;;;;;;5.18;3.60;;;;;;;;;;5107918;28;20495;-71
2023/04/24 02:23:45;;;;;;;3.95;2.85;;;;;;;;;;5107053;28;20039;-70
2023/04/24 02:26:12;;;;;;;3.50;2.08;;;;;;;;;;5105557;28;20055;-70
2023/04/24 02:28:40;;;;;;;2.10;1.70;;;;;;;;;;5107007;28;20066;-71
2023/04/24 02:31:08;;;;;;;1.70;1.30;;;;;;;;;;5106668;28;20051;-71
2023/04/24 02:33:36;;;;;;;3.08;1.40;;;;;;;;;;5106990;28;20050;-71
2023/04/24 02:36:03;;;;;;;4.90;1.60;;;;;;;;;;5101326;28;20108;-71
2023/04/24 02:38:30;;;;;;;2.50;1.58;;;;;;;;;;5106180;28;20079;-72
2023/04/24 02:40:58;;;;;;;2.30;1.33;;;;;;;;;;5106945;28;20044;-72
2023/04/24 02:43:25;;;;;;;2.53;1.20;;;;;;;;;;5104611;28;20081;-73
2023/04/24 02:45:52;;;;;;;3.22;1.20;;;;;;;;;;5105692;28;20043;-73
2023/04/24 02:48:21;;;;;;;3.40;0.80;;;;;;;;;;5103222;28;20048;-73
2023/04/24 02:50:50;;;;;;;1.10;0.50;;;;;;;;;;5105152;28;20055;-73
2023/04/24 02:53:17;;;;;;;0.80;0.60;;;;;;;;;;5083802;28;20640;-73
2023/04/24 02:55:45;;;;;;;1.15;0.60;;;;;;;;;;5096592;28;20076;-74
2023/04/24 02:58:13;;;;;;;1.02;0.52;;;;;;;;;;5085355;28;20060;-74
2023/04/24 03:00:40;;;;;;;2.60;0.75;;;;;;;;;;5107272;28;20048;-74
2023/04/24 03:03:08;;;;;;;1.67;0.55;;;;;;;;;;5088068;28;20523;-73
2023/04/24 03:05:36;;;;;;;1.40;0.77;;;;;;;;;;5106842;28;20417;-73
2023/04/24 03:08:04;;;;;;;1.50;0.65;;;;;;;;;;5106078;28;20063;-74
2023/04/24 03:10:32;;;;;;;2.13;0.60;;;;;;;;;;5106464;28;20207;-73
2023/04/24 03:12:59;;;;;;;0.73;0.60;;;;;;;;;;5087761;28;20047;-73
2023/04/24 03:15:26;;;;;;;1.35;0.60;;;;;;;;;;5107040;28;20066;-73
2023/04/24 03:17:53;;;;;;;1.70;0.90;;;;;;;;;;5107203;28;20502;-73
2023/04/24 03:20:21;;;;;;;0.90;0.63;;;;;;;;;;5085690;28;20363;-74
2023/04/24 03:22:50;;;;;;;2.00;0.70;;;;;;;;;;5104767;28;20120;-74
2023/04/24 03:25:17;;;;;;;1.10;0.70;;;;;;;;;;5106397;28;20054;-74
2023/04/24 03:27:44;;;;;;;1.70;1.00;;;;;;;;;;5107402;28;20047;-74
2023/04/24 03:30:12;;;;;;;2.28;1.00;;;;;;;;;;5110262;28;20043;-73
2023/04/24 03:32:39;;;;;;;3.28;1.23;;;;;;;;;;5110106;27;20151;-73
2023/04/24 03:35:08;;;;;;;2.00;1.35;;;;;;;;;;5108623;28;20572;-74
2023/04/24 03:37:35;;;;;;;3.03;1.80;;;;;;;;;;5091302;28;20054;-73
2023/04/24 03:40:05;;;;;;;2.95;1.70;;;;;;;;;;5109839;28;20054;-74
2023/04/24 03:42:33;;;;;;;2.85;1.50;;;;;;;;;;5105997;28;20048;-73
2023/04/24 03:45:00;;;;;;;1.58;1.15;;;;;;;;;;5092398;28;20090;-73
2023/04/24 03:47:27;;;;;;;2.10;0.90;;;;;;;;;;5108581;28;20388;-74
2023/04/24 03:49:55;;;;;;;2.58;1.02;;;;;;;;;;5108227;28;20048;-73
2023/04/24 03:52:22;;;;;;;1.55;0.70;;;;;;;;;;5111480;28;20491;-74
2023/04/24 03:54:50;;;;;;;1.35;0.90;;;;;;;;;;5108332;28;20422;-74
2023/04/24 03:57:18;;;;;;;1.92;0.80;;;;;;;;;;5112656;27;20071;-74
2023/04/24 03:59:46;;;;;;;1.38;0.70;;;;;;;;;;5082222;28;20055;-73
2023/04/24 04:02:13;;;;;;;1.45;0.63;;;;;;;;;;5110172;27;20100;-73
2023/04/24 04:04:40;;;;;;;1.92;0.93;;;;;;;;;;5108671;27;20414;-73
2023/04/24 04:07:08;;;;;;;2.33;1.30;;;;;;;;;;5109633;28;20044;-73
2023/04/24 04:09:35;;;;;;;2.03;1.42;;;;;;;;;;5116701;27;20085;-73
2023/04/24 04:12:02;;;;;;;3.05;1.90;;;;;;;;;;5114963;27;20086;-73
2023/04/24 04:14:31;;;;;;;4.00;2.38;;;;;;;;;;5119216;27;20039;-73
2023/04/24 04:16:58;;;;;;;7.78;2.58;;;;;;;;;;5105646;27;20383;-73
2023/04/24 04:19:26;;;;;;;4.32;2.80;;;;;;;;;;5119843;27;20043;-73
2023/04/24 04:21:55;;;;;;;4.45;2.30;;;;;;;;;;5110946;27;20047;-73
2023/04/24 04:24:23;;;;;;;4.82;2.22;;;;;;;;;;5097872;27;20044;-74
2023/04/24 04:26:51;;;;;;;3.03;1.83;;;;;;;;;;5114378;27;20114;-73
2023/04/24 04:29:19;;;;;;;2.33;1.40;;;;;;;;;;5109129;27;20101;-73
2023/04/24 04:31:48;;;;;;;3.13;1.30;;;;;;;;;;5113218;27;20467;-73
2023/04/24 04:34:15;;;;;;;4.90;1.27;;;;;;;;;;5114185;27;20062;-73
2023/04/24 04:36:43;;;;;;;4.75;2.13;;;;;;;;;;5104741;27;20058;-73
2023/04/24 04:39:10;;;;;;;6.07;2.53;;;;;;;;;;5110124;27;20494;-73
2023/04/24 04:41:40;;;;;;;4.28;3.03;;;;;;;;;;5113192;27;20481;-73
2023/04/24 04:44:08;;;;;;;4.95;3.58;;;;;;;;;;5115583;27;20546;-73
2023/04/24 04:46:37;;;;;;;5.65;4.20;;;;;;;;;;5105273;27;20438;-73
2023/04/24 04:49:06;;;;;;;6.82;4.28;;;;;;;;;;5111020;27;20058;-73
2023/04/24 04:51:33;;;;;;;7.43;4.57;;;;;;;;;;5108288;27;20386;-73
2023/04/24 04:54:00;;;;;;;7.10;4.18;;;;;;;;;;5120842;27;20052;-73
2023/04/24 04:56:27;;;;;;;8.25;4.07;;;;;;;;;;5108481;27;20044;-73
2023/04/24 04:58:55;;;;;;;9.32;4.25;;;;;;;;;;5118707;27;20116;-73
2023/04/24 05:01:22;;;;;;;9.38;4.45;;;;;;;;;;5108999;27;20494;-73
2023/04/24 05:03:50;;;;;;;7.75;4.13;;;;;;;;;;5121895;27;20051;-73
2023/04/24 05:06:18;;;;;;;6.55;3.05;;;;;;;;;;5128878;27;20043;-73
2023/04/24 05:08:46;;;;;;;5.97;2.22;;;;;;;;;;5114838;27;20062;-73
2023/04/24 05:11:13;;;;;;;3.50;2.10;;;;;;;;;;5121984;27;20070;-73
2023/04/24 05:13:42;;;;;;;1.70;1.10;;;;;;;;;;5113247;27;20043;-73
2023/04/24 05:16:10;;;;;;;2.58;1.40;;;;;;;;;;5113380;27;20051;-73
2023/04/24 05:18:37;;;;;;;2.20;1.70;;;;;;;;;;5120837;27;20054;-73
2023/04/24 05:21:04;;;;;;;4.40;1.65;;;;;;;;;;5121259;27;20050;-73
2023/04/24 05:23:33;;;;;;;2.88;1.40;;;;;;;;;;5118526;27;20053;-72
2023/04/24 05:26:00;;;;;;;3.83;1.88;;;;;;;;;;5120715;27;20055;-73
2023/04/24 05:28:28;;;;;;;2.40;1.20;;;;;;;;;;5121170;27;20054;-73
2023/04/24 05:30:56;;;;;;;5.55;2.55;;;;;;;;;;5113153;27;20122;-73
2023/04/24 05:33:23;;;;;;;5.15;3.03;;;;;;;;;;5109301;27;20040;-73
2023/04/24 05:35:50;;;;;;;2.78;1.80;;;;;;;;;;5115656;27;20040;-73
2023/04/24 05:38:19;;;;;;;3.10;1.90;;;;;;;;;;5125281;27;20092;-72
2023/04/24 05:40:48;;;;;;;4.70;1.75;;;;;;;;;;5116052;27;20070;-73
2023/04/24 05:43:15;;;;;;;3.33;1.63;;;;;;;;;;5119182;27;20134;-73
2023/04/24 05:45:43;;;;;;;2.92;1.40;;;;;;;;;;5108553;27;20721;-72
2023/04/24 05:48:10;;;;;;;3.42;1.00;;;;;;;;;;5111568;27;20141;-73
2023/04/24 05:50:37;;;;;;;1.85;0.90;;;;;;;;;;5119505;27;20157;-73
2023/04/24 05:53:06;;;;;;;4.07;0.90;;;;;;;;;;5113488;27;20387;-72
2023/04/24 05:55:34;;;;;;;1.88;0.95;;;;;;;;;;5111187;27;20083;-72
2023/04/24 05:58:02;;;;;;;1.92;1.20;;;;;;;;;;5115272;27;20055;-73
2023/04/24 06:00:30;;;;;;;1.67;1.00;;;;;;;;;;5116292;27;20462;-73
2023/04/24 06:02:57;;;;;;;1.42;1.00;;;;;;;;;;5118101;27;20043;-73
2023/04/24 06:05:25;;;;;;;3.05;1.13;;;;;;;;;;5114969;27;20047;-72
2023/04/24 06:07:52;;;;;;;2.53;0.90;;;;;;;;;;5116155;28;20047;-73
2023/04/24 06:10:19;;;;;;;2.05;0.85;;;;;;;;;;5108669;27;20065;-72
2023/04/24 06:12:47;;;;;;;2.95;0.90;;;;;;;;;;5128076;27;20043;-72
2023/04/24 06:15:15;;;;;;;4.40;1.00;;;;;;;;;;5128103;27;20050;-72
2023/04/24 06:17:42;;;;;;;2.00;1.40;;;;;;;;;;5129142;27;20070;-72
2023/04/24 06:20:11;;;;;;;3.13;1.60;;;;;;;;;;5124118;27;20039;-73
2023/04/24 06:22:39;;;;;;;3.80;1.80;;;;;;;;;;5128528;27;20051;-72
2023/04/24 06:25:07;;;;;;;3.15;1.92;;;;;;;;;;5125855;27;20069;-72
2023/04/24 06:27:35;;;;;;;7.38;2.50;;;;;;;;;;5128894;27;20047;-73
2023/04/24 06:30:02;;;;;;;7.63;3.60;;;;;;;;;;5127162;27;20051;-72
2023/04/24 06:32:31;;;;;;;11.70;5.55;;;;;;;;;;5128361;27;20387;-72
2023/04/24 06:34:58;;;;;;;8.85;4.60;;;;;;;;;;5126891;27;20054;-71
2023/04/24 06:37:26;;;;;;;9.43;4.97;;;;;;;;;;5127713;27;20051;-71
2023/04/24 06:39:53;;;;;;;10.98;5.55;;;;;;;;;;5126409;27;20051;-71
2023/04/24 06:42:21;;;;;;;14.60;6.18;;;;;;;;;;5129169;27;20051;-72
2023/04/24 06:44:49;;;;;;;10.40;5.75;;;;;;;;;;5126229;27;20055;-72
2023/04/24 06:47:16;;;;;;;12.80;5.70;;;;;;;;;;5128528;27;20057;-71
2023/04/24 06:49:45;;;;;;;9.82;5.05;;;;;;;;;;5127408;27;20062;-72
2023/04/24 06:52:12;;;;;;;12.57;5.07;;;;;;;;;;5127168;27;20053;-72
2023/04/24 06:54:39;;;;;;;11.27;4.30;;;;;;;;;;5126936;27;20375;-73
2023/04/24 06:57:06;;;;;;;7.63;3.47;;;;;;;;;;5125967;27;20058;-71
2023/04/24 06:59:34;;;;;;;9.52;4.43;;;;;;;;;;5125535;27;20055;-72
2023/04/24 07:02:01;;;;;;;9.35;4.97;;;;;;;;;;5123908;27;20049;-71
2023/04/24 07:04:29;;;;;;;14.20;5.72;;;;;;;;;;5130180;27;20047;-72
2023/04/24 07:06:57;;;;;;;9.70;5.88;;;;;;;;;;5131669;27;20051;-72
2023/04/24 07:09:25;;;;;;;12.55;6.00;;;;;;;;;;5127964;27;20058;-72
2023/04/24 07:11:53;;;;;;;11.77;5.07;;;;;;;;;;5130190;27;20390;-71
2023/04/24 07:14:20;;;;;;;12.18;5.97;;;;;;;;;;5132737;27;20105;-71
2023/04/24 07:16:48;;;;;;;12.45;6.15;;;;;;;;;;5128535;27;20047;-72
2023/04/24 07:19:15;;;;;;;9.00;5.85;;;;;;;;;;5130679;27;20047;-71
2023/04/24 07:21:42;;;;;;;13.15;6.45;;;;;;;;;;5130864;27;20074;-71
2023/04/24 07:24:12;;;;;;;13.70;5.85;;;;;;;;;;5113348;27;20487;-71
2023/04/24 07:26:40;;;;;;;11.90;5.43;;;;;;;;;;5131030;27;20043;-71
2023/04/24 07:29:07;;;;;;;10.48;5.13;;;;;;;;;;5112811;27;20051;-71
2023/04/24 07:31:35;;;;;;;9.65;4.80;;;;;;;;;;5129429;27;20383;-71
2023/04/24 07:34:02;;;;;;;6.85;4.10;;;;;;;;;;5122164;27;20051;-71
2023/04/24 07:36:29;;;;;;;6.00;3.28;;;;;;;;;;5128600;27;20139;-71
2023/04/24 07:38:57;;;;;;;4.88;3.15;;;;;;;;;;5131608;27;20092;-71
2023/04/24 07:41:27;;;;;;;5.13;2.80;;;;;;;;;;5110070;27;20043;-71
2023/04/24 07:43:54;;;;;;;5.85;3.08;;;;;;;;;;5125296;27;20051;-71
2023/04/24 07:46:23;;;;;;;4.90;2.65;;;;;;;;;;5128472;27;20050;-71
2023/04/24 07:48:50;;;;;;;6.63;2.85;;;;;;;;;;5128247;27;20051;-71
2023/04/24 07:51:17;;;;;;;4.60;2.75;;;;;;;;;;5130163;27;20501;-71
2023/04/24 07:53:45;;;;;;;8.50;2.60;;;;;;;;;;5130459;27;20047;-71
2023/04/24 07:56:12;;;;;;;5.60;3.25;;;;;;;;;;5129224;27;20379;-71
2023/04/24 07:58:41;;;;;;;8.05;2.58;;;;;;;;;;5131708;27;20498;-71
2023/04/24 08:01:08;;;;;;;5.72;2.22;;;;;;;;;;5130364;27;20478;-71
2023/04/24 08:03:35;;;;;;;6.65;2.70;;;;;;;;;;5124135;27;20056;-71
2023/04/24 08:06:03;;;;;;;5.15;2.45;;;;;;;;;;5126147;27;20054;-71
2023/04/24 08:08:30;;;;;;;4.60;2.50;;;;;;;;;;5120051;27;20043;-71
2023/04/24 08:10:57;;;;;;;6.38;2.63;;;;;;;;;;5129430;27;20471;-71
2023/04/24 08:13:25;;;;;;;6.78;2.53;;;;;;;;;;5126850;27;20044;-71
2023/04/24 08:15:53;;;;;;;4.65;2.67;;;;;;;;;;5130202;27;20129;-71
2023/04/24 08:18:20;;;;;;;7.10;3.00;;;;;;;;;;5127984;27;20051;-71
2023/04/24 08:20:48;;;;;;;6.30;2.38;;;;;;;;;;5130359;27;20047;-71
2023/04/24 08:23:15;;;;;;;3.63;1.80;;;;;;;;;;5129403;27;20047;-72
2023/04/24 08:25:42;;;;;;;5.97;2.60;;;;;;;;;;5131091;27;20036;-71
2023/04/24 08:28:10;;;;;;;9.23;2.65;;;;;;;;;;5129139;27;20054;-71
2023/04/24 08:30:38;;;;;;;8.45;2.60;;;;;;;;;;5131083;27;20051;-71
2023/04/24 08:33:07;;;;;;;4.65;1.90;;;;;;;;;;5127414;27;20538;-71
2023/04/24 08:35:34;;;;;;;4.15;1.70;;;;;;;;;;5131027;27;20156;-71
2023/04/24 08:38:01;;;;;;;7.03;1.70;;;;;;;;;;5108109;27;20051;-71
2023/04/24 08:40:30;;;;;;;7.88;2.10;;;;;;;;;;5130005;27;20051;-70
2023/04/24 08:42:57;;;;;;;4.93;1.88;;;;;;;;;;5126696;27;20170;-70
2023/04/24 08:45:25;;;;;;;6.93;1.73;;;;;;;;;;5130576;27;20126;-71
2023/04/24 08:47:54;;;;;;;3.65;1.40;;;;;;;;;;5126521;27;20043;-71
2023/04/24 08:50:23;;;;;;;3.67;1.20;;;;;;;;;;5129733;27;20078;-70
2023/04/24 08:52:53;;;;;;;4.78;1.27;;;;;;;;;;5128368;27;20051;-71
2023/04/24 08:55:21;;;;;;;3.35;1.33;;;;;;;;;;5129998;27;20549;-70
2023/04/24 08:57:52;;;;;;;3.47;1.10;;;;;;;;;;5129428;27;20187;-70
2023/04/24 09:00:20;;;;;;;1.58;1.05;;;;;;;;;;5128266;27;20069;-71
2023/04/24 09:02:48;;;;;;;4.10;1.38;;;;;;;;;;5124279;27;20055;-70
2023/04/24 09:05:17;;;;;;;5.57;1.52;;;;;;;;;;5129336;27;20505;-71
2023/04/24 09:07:47;;;;;;;6.13;1.17;;;;;;;;;;5128271;27;20127;-70
2023/04/24 09:10:15;;;;;;;9.15;1.60;;;;;;;;;;5125302;27;20096;-71
2023/04/24 09:12:43;;;;;;;5.88;1.50;;;;;;;;;;5120488;27;20047;-70
2023/04/24 09:15:10;;;;;;;4.45;1.60;;;;;;;;;;5127755;27;20070;-71
2023/04/24 09:17:38;;;;;;;4.85;1.35;;;;;;;;;;5128635;27;20047;-70
2023/04/24 09:20:06;;;;;;;8.00;1.20;;;;;;;;;;5128621;27;20494;-71
2023/04/24 09:22:33;;;;;;;3.30;0.80;;;;;;;;;;5126630;27;20051;-71
2023/04/24 09:25:06;;;;;;;2.72;0.93;;;;;;;;;;5127649;27;20050;-70
2023/04/24 09:27:33;;;;;;;4.20;1.08;;;;;;;;;;5117945;27;20050;-70
2023/04/24 09:30:01;;;;;;;2.78;1.10;;;;;;;;;;5123110;27;20046;-71
2023/04/24 09:32:29;;;;;;;5.32;0.93;;;;;;;;;;5128351;27;20040;-71
2023/04/24 09:35:13;;;;;;;3.53;1.00;;;;;;;;;;5124637;27;20054;-70
2023/04/24 09:37:41;;;;;;;2.95;1.00;;;;;;;;;;5127787;27;20129;-71
2023/04/24 09:40:14;;;;;;;4.90;1.10;;;;;;;;;;5127684;27;20381;-71
2023/04/24 09:42:41;;;;;;;3.95;1.10;;;;;;;;;;5127990;27;20058;-71
2023/04/24 09:45:12;;;;;;;3.03;0.65;;;;;;;;;;5131311;27;20043;-71
2023/04/24 09:47:39;;;;;;;5.93;1.48;;;;;;;;;;5129774;27;20455;-71
2023/04/24 09:50:16;;;;;;;4.68;0.90;;;;;;;;;;5128123;27;20047;-71
2023/04/24 09:52:44;;;;;;;3.40;0.70;;;;;;;;;;5121579;27;20553;-70
2023/04/24 09:55:18;;;;;;;3.03;0.90;;;;;;;;;;5128825;27;20046;-71
2023/04/24 09:57:50;;;;;;;6.82;1.02;;;;;;;;;;5125462;27;20198;-71
2023/04/24 10:00:20;;;;;;;2.65;0.80;;;;;;;;;;5123255;27;20051;-71
2023/04/24 10:02:51;;;;;;;4.53;0.80;;;;;;;;;;5125202;27;20108;-71
2023/04/24 10:05:19;;;;;;;3.38;0.98;;;;;;;;;;5126743;27;20038;-70
2023/04/24 10:07:46;;;;;;;2.40;0.60;;;;;;;;;;5122998;27;20051;-71
2023/04/24 10:10:14;;;;;;;1.95;0.65;;;;;;;;;;5125413;27;20549;-70
2023/04/24 10:12:43;;;;;;;3.03;0.63;;;;;;;;;;5124948;27;20049;-71
2023/04/24 10:15:13;;;;;;;5.20;0.85;;;;;;;;;;5124294;27;20102;-71
2023/04/24 10:17:42;;;;;;;2.70;0.63;;;;;;;;;;5109519;28;20134;-71
2023/04/24 10:20:09;;;;;;;3.28;0.70;;;;;;;;;;5126202;27;20059;-71
2023/04/24 10:22:37;;;;;;;2.88;0.70;;;;;;;;;;5128740;27;20047;-70
2023/04/24 10:25:06;;;;;;;3.05;0.80;;;;;;;;;;5107185;28;20047;-71
2023/04/24 10:27:34;;;;;;;1.92;0.85;;;;;;;;;;5127875;27;20080;-70
2023/04/24 10:30:03;;;;;;;8.30;0.90;;;;;;;;;;5124804;27;20404;-71
2023/04/24 10:32:31;;;;;;;7.30;0.95;;;;;;;;;;5128264;27;20050;-70
2023/04/24 10:34:58;;;;;;;2.10;0.60;;;;;;;;;;5097016;28;20526;-70
2023/04/24 10:37:26;;;;;;;2.58;0.70;;;;;;;;;;5130200;27;20058;-70
2023/04/24 10:39:54;;;;;;;2.33;0.47;;;;;;;;;;5112895;27;20069;-70
2023/04/24 10:42:22;;;;;;;3.42;0.60;;;;;;;;;;5112450;27;20058;-70
2023/04/24 10:44:50;;;;;;;3.00;0.63;;;;;;;;;;5131308;27;20035;-70
2023/04/24 10:47:18;;;;;;;3.20;0.57;;;;;;;;;;5136534;27;20082;-70
2023/04/24 10:49:46;;;;;;;5.32;0.88;;;;;;;;;;5131042;27;20047;-70
2023/04/24 10:52:13;;;;;;;1.63;0.47;;;;;;;;;;5132768;27;20486;-70
2023/04/24 10:54:43;;;;;;;4.03;0.80;;;;;;;;;;5131675;27;20039;-71
2023/04/24 10:57:32;;;;;;;5.47;0.70;;;;;;;;;;5113193;27;20162;-70
2023/04/24 11:00:15;;;;;;;1.70;0.45;;;;;;;;;;5130048;27;20050;-70
2023/04/24 11:02:48;;;;;;;2.63;0.60;;;;;;;;;;5119224;27;20084;-70
2023/04/24 11:05:15;;;;;;;;;;;;;;;;;;5131550;27;20051;-71
2023/04/24 11:08:01;;;;;;;2.75;0.60;;;;;;;;;;5130602;27;20297;-70
2023/04/24 11:10:29;;;;;;;4.45;0.82;;;;;;;;;;5127265;27;20055;-70
2023/04/24 11:12:56;;;;;;;3.72;1.80;;;;;;;;;;5114439;27;20047;-70
2023/04/24 11:15:23;;;;;;;1.90;1.05;;;;;;;;;;5119167;27;20062;-70
2023/04/24 11:17:57;;;;;;;2.47;0.60;;;;;;;;;;5113745;27;20059;-70
2023/04/24 11:20:26;;;;;;;2.25;0.68;;;;;;;;;;5115121;27;20047;-70
2023/04/24 11:22:55;;;;;;;2.42;0.63;;;;;;;;;;5110669;27;20051;-71
2023/04/24 11:25:23;;;;;;;3.55;0.75;;;;;;;;;;5103316;27;20051;-70
2023/04/24 11:27:51;;;;;;;4.22;0.60;;;;;;;;;;5121752;27;20043;-71
2023/04/24 11:30:19;;;;;;;2.20;0.40;;;;;;;;;;5117530;27;20055;-70
2023/04/24 11:32:49;;;;;;;2.80;0.55;;;;;;;;;;5119796;27;20067;-70
2023/04/24 11:35:24;;;;;;;1.83;0.50;;;;;;;;;;5117282;27;20052;-71
2023/04/24 11:37:52;;;;;;;4.72;0.70;;;;;;;;;;5117678;27;20142;-70
2023/04/24 11:40:20;;;;;;;3.78;0.65;;;;;;;;;;5118085;27;20077;-70
2023/04/24 11:42:48;;;;;;;2.70;0.70;;;;;;;;;;5119321;27;20043;-70
2023/04/24 11:45:16;;;;;;;2.28;0.70;;;;;;;;;;5113160;27;20051;-70
2023/04/24 11:47:43;;;;;;;3.08;0.45;;;;;;;;;;5110021;27;20051;-70
2023/04/24 11:50:12;;;;;;;4.15;0.70;;;;;;;;;;5110899;27;20074;-70
2023/04/24 11:52:42;;;;;;;4.72;0.70;;;;;;;;;;5114153;27;20063;-70
2023/04/24 11:55:10;;;;;;;1.80;0.68;;;;;;;;;;5116227;27;20382;-70
2023/04/24 11:57:37;;;;;;;2.20;0.40;;;;;;;;;;5108512;27;20048;-71
2023/04/24 12:00:06;;;;;;;4.00;0.90;;;;;;;;;;5117719;27;20050;-70
2023/04/24 12:02:33;;;;;;;3.25;0.70;;;;;;;;;;5114848;27;20506;-70
2023/04/24 12:05:00;;;;;;;1.85;0.60;;;;;;;;;;5111911;27;20048;-70
2023/04/24 12:07:27;;;;;;;2.58;0.50;;;;;;;;;;5111588;27;20048;-70
2023/04/24 12:10:00;;;;;;;2.15;0.40;;;;;;;;;;5110882;27;20046;-71
2023/04/24 12:12:28;;;;;;;1.75;0.40;;;;;;;;;;5109825;27;20052;-70
2023/04/24 12:14:56;;;;;;;2.97;0.60;;;;;;;;;;5097993;27;20099;-71
2023/04/24 12:17:28;;;;;;;3.10;0.60;;;;;;;;;;5114661;27;20043;-70
2023/04/24 12:19:58;;;;;;;1.65;0.30;;;;;;;;;;5115654;27;20044;-70
2023/04/24 12:22:26;;;;;;;0.85;0.30;;;;;;;;;;5112858;27;20066;-70
2023/04/24 12:25:01;;;;;;;1.20;0.40;;;;;;;;;;5114736;27;20092;-71
2023/04/24 12:27:32;;;;;;;2.72;0.47;;;;;;;;;;5120453;27;20075;-71
2023/04/24 12:29:59;;;;;;;1.75;0.30;;;;;;;;;;5117160;27;20078;-70
2023/04/24 12:32:27;;;;;;;2.25;0.30;;;;;;;;;;5115901;27;20043;-71
2023/04/24 12:34:55;;;;;;;1.35;0.32;;;;;;;;;;5111809;27;20043;-70
2023/04/24 12:37:22;;;;;;;1.75;0.40;;;;;;;;;;5122324;27;20043;-70
2023/04/24 12:40:08;;;;;;;0.55;0.28;;;;;;;;;;5114564;27;20405;-70
2023/04/24 12:42:35;;;;;;;1.45;0.30;;;;;;;;;;5111734;27;20056;-70
2023/04/24 12:45:04;;;;;;;2.92;0.43;;;;;;;;;;5115540;27;20065;-71
2023/04/24 12:47:33;;;;;;;2.05;0.30;;;;;;;;;;5117024;27;20059;-70
2023/04/24 12:50:02;;;;;;;3.13;0.50;;;;;;;;;;5111871;27;20048;-70
2023/04/24 12:52:30;;;;;;;2.92;0.45;;;;;;;;;;5111088;27;20487;-71
2023/04/24 12:54:58;;;;;;;1.60;0.50;;;;;;;;;;5104946;27;20104;-70
2023/04/24 12:57:27;;;;;;;1.65;0.57;;;;;;;;;;5107578;27;20036;-70
2023/04/24 12:59:59;;;;;;;3.55;0.60;;;;;;;;;;5113878;27;20391;-70
2023/04/24 13:02:26;;;;;;;3.28;0.80;;;;;;;;;;5109272;27;20032;-70
2023/04/24 13:04:54;;;;;;;4.35;0.90;;;;;;;;;;5110544;27;20137;-70
2023/04/24 13:07:22;;;;;;;6.22;0.80;;;;;;;;;;5115516;27;20546;-70
2023/04/24 13:09:50;;;;;;;2.50;0.80;;;;;;;;;;5130298;27;20069;-70
2023/04/24 13:12:17;;;;;;;5.47;0.70;;;;;;;;;;5109398;27;20348;-70
2023/04/24 13:14:46;;;;;;;5.70;0.95;;;;;;;;;;5110045;27;20055;-70
2023/04/24 13:17:14;;;;;;;2.92;0.77;;;;;;;;;;5109043;27;20475;-70
2023/04/24 13:19:41;;;;;;;7.13;1.58;;;;;;;;;;5114193;27;20047;-70
2023/04/24 13:22:10;;;;;;;3.03;1.08;;;;;;;;;;5116546;27;20051;-71
2023/04/24 13:24:39;;;;;;;7.88;1.30;;;;;;;;;;5114206;27;20040;-70
2023/04/24 13:27:07;;;;;;;6.90;0.90;;;;;;;;;;5102006;27;20118;-70
2023/04/24 13:29:34;;;;;;;4.32;0.77;;;;;;;;;;5112771;27;20074;-70
2023/04/24 13:32:03;;;;;;;4.43;0.75;;;;;;;;;;5119184;27;20387;-70
2023/04/24 13:34:30;;;;;;;2.60;0.60;;;;;;;;;;5118836;27;20467;-71
2023/04/24 13:36:58;;;;;;;3.25;0.60;;;;;;;;;;5109408;27;20040;-70
2023/04/24 13:39:25;;;;;;;3.13;0.80;;;;;;;;;;5106490;27;20058;-70
2023/04/24 13:41:53;;;;;;;2.28;0.73;;;;;;;;;;5109577;28;20043;-70
2023/04/24 13:44:21;;;;;;;0.85;0.40;;;;;;;;;;5113788;27;20067;-70
2023/04/24 13:46:49;;;;;;;3.75;0.75;;;;;;;;;;5119308;27;20050;-70
2023/04/24 13:49:18;;;;;;;3.40;0.60;;;;;;;;;;5106255;27;20453;-70
2023/04/24 13:51:46;;;;;;;2.45;0.47;;;;;;;;;;5112649;27;20122;-70
2023/04/24 13:54:13;;;;;;;5.95;0.98;;;;;;;;;;5109677;27;20101;-70
2023/04/24 13:56:41;;;;;;;2.03;0.50;;;;;;;;;;5112981;27;20043;-70
2023/04/24 13:59:08;;;;;;;7.55;1.60;;;;;;;;;;5106236;27;20063;-70
2023/04/24 14:01:36;;;;;;;5.72;1.60;;;;;;;;;;5117970;27;20075;-70
2023/04/24 14:04:03;;;;;;;6.93;1.10;;;;;;;;;;5107102;27;20505;-70
2023/04/24 14:06:32;;;;;;;5.20;1.02;;;;;;;;;;5108135;27;20058;-70
2023/04/24 14:09:00;;;;;;;5.78;0.85;;;;;;;;;;5111568;27;20494;-70
2023/04/24 14:11:27;;;;;;;6.18;1.00;;;;;;;;;;5120760;27;20059;-70
2023/04/24 14:13:57;;;;;;;2.75;0.85;;;;;;;;;;5125488;27;20500;-69
2023/04/24 14:16:24;;;;;;;3.25;0.90;;;;;;;;;;5128906;27;20506;-72
2023/04/24 14:18:51;;;;;;;5.43;1.00;;;;;;;;;;5126468;27;20042;-70
2023/04/24 14:21:19;;;;;;;2.88;0.80;;;;;;;;;;5127718;27;20124;-69
2023/04/24 14:23:47;;;;;;;4.20;0.95;;;;;;;;;;5128072;27;20049;-69
2023/04/24 14:26:17;;;;;;;8.48;0.80;;;;;;;;;;5128665;27;20043;-69
2023/04/24 14:28:45;;;;;;;4.20;1.02;;;;;;;;;;5126700;27;20055;-70
2023/04/24 14:31:12;;;;;;;3.85;0.98;;;;;;;;;;5127217;27;20047;-69
2023/04/24 14:33:39;;;;;;;6.72;1.20;;;;;;;;;;5126412;27;20043;-69
2023/04/24 14:36:07;;;;;;;4.75;0.98;;;;;;;;;;5127425;27;20105;-69
2023/04/24 14:38:34;;;;;;;1.98;0.80;;;;;;;;;;5127642;27;20131;-69
2023/04/24 14:41:08;;;;;;;6.53;1.17;;;;;;;;;;5126464;27;20428;-69
2023/04/24 14:43:36;;;;;;;5.85;0.90;;;;;;;;;;5123657;27;20051;-69
2023/04/24 14:46:03;;;;;;;3.65;0.90;;;;;;;;;;5124117;27;20482;-70
2023/04/24 14:48:31;;;;;;;8.60;1.20;;;;;;;;;;5108674;27;20054;-69